Date,TemperatureHighF,TemperatureAvgF,TemperatureLowF,DewpointHighF,DewpointAvgF,DewpointLowF,HumidityHigh,HumidityAvg,HumidityLow,PressureMaxIn,PressureMinIn,WindSpeedMaxMPH,WindSpeedAvgMPH,GustSpeedMaxMPH,PrecipitationSumIn
2014-2-25,42.8,33.8,27.8,25.1,22.1,18.3,71,62,49,38.18,37.70,2,0,2,0.00
2014-2-26,59.5,40.3,21.0,33.1,23.2,16.2,86,56,20,38.42,37.80,7,1,11,0.00
2014-2-27,52.1,41.3,30.0,40.8,31.2,26.4,91,69,40,37.84,37.53,10,2,23,0.01
2014-2-28,52.3,40.8,32.3,42.3,34.9,26.6,99,80,53,37.66,36.65,9,2,16,0.33
2014-3-1,42.6,36.7,32.0,42.3,36.2,31.7,99,98,94,37.55,36.64,11,2,46,1.57
2014-3-2,46.2,35.1,30.3,39.0,33.1,29.3,99,93,72,37.96,37.61,4,1,11,0.33
2014-3-3,58.4,39.9,28.5,40.3,31.8,24.4,99,77,32,38.26,38.07,6,1,10,0.01
2014-3-4,55.4,39.4,28.0,41.2,31.5,22.9,99,76,40,38.27,38.19,5,1,14,0.00
2014-3-5,58.8,41.3,26.4,30.1,22.1,11.1,92,53,18,38.45,38.45,5,1,12,0.00
2014-3-6,58.6,39.3,25.3,35.2,23.4,13.6,88,59,19,0.00,40.00,8,1,15,0.00
2014-3-7,60.6,40.7,27.1,33.6,20.3,5.9,87,52,16,38.24,38.07,5,1,12,0.00
2014-3-8,50.5,39.7,30.5,23.3,17.2,10.1,63,42,20,38.88,37.89,10,3,22,0.00
2014-3-9,57.2,39.4,25.3,24.4,15.8,8.4,65,43,16,39.01,38.95,8,2,15,0.00
2014-3-10,63.1,40.4,19.2,27.3,16.7,11.6,78,45,15,39.10,37.61,6,1,14,0.00
2014-3-11,60.6,41.8,30.0,20.6,11.1,-4.0,60,32,15,38.00,37.00,7,2,13,0.00
2014-3-12,52.7,37.8,27.5,20.1,11.9,-3.0,62,36,20,0.00,40.00,8,2,18,0.00
2014-3-13,57.9,38.6,23.0,31.0,22.4,14.6,74,55,24,38.50,37.49,4,1,12,0.00
2014-3-14,51.4,40.7,27.6,43.6,31.9,24.1,90,72,50,37.68,37.67,5,1,8,0.05
2014-3-15,57.0,41.1,23.9,24.4,11.7,1.0,90,40,15,38.71,38.03,9,3,22,0.00
2014-3-16,62.6,45.2,27.3,17.0,6.9,-4.0,55,22,14,38.92,38.48,9,2,14,0.00
2014-3-17,62.4,42.0,21.9,22.0,12.5,4.1,71,36,15,38.82,36.44,10,2,21,0.00
2014-3-18,55.0,36.9,22.1,9.6,1.3,-10.0,41,22,16,37.95,36.92,8,2,15,0.00
2014-3-19,60.0,34.0,11.1,14.1,4.1,-3.0,59,32,16,38.49,38.36,6,1,12,0.00
2014-3-20,61.5,38.1,14.5,19.4,9.5,1.8,64,35,15,38.88,37.94,8,1,15,0.00
2014-3-21,60.9,39.8,20.3,21.5,12.0,6.3,68,37,15,38.20,36.74,7,1,15,0.00
2014-3-22,60.9,40.6,19.2,30.7,18.0,8.0,74,45,18,38.10,38.01,6,1,12,0.00
2014-3-23,62.0,41.9,23.3,32.8,19.2,11.1,85,48,16,38.32,37.83,7,1,11,0.00
2014-3-24,64.5,42.2,23.1,27.2,12.6,1.9,72,36,13,38.28,37.56,5,1,13,0.00
2014-3-25,63.6,42.3,22.6,26.3,13.9,0.9,55,35,14,38.44,36.91,6,1,11,0.00
2014-3-26,50.7,42.3,34.3,32.5,27.0,22.2,89,57,33,37.29,36.96,12,3,23,0.00
2014-3-27,51.9,39.2,28.0,31.9,26.6,17.4,93,64,28,37.81,37.27,7,2,16,0.04
2014-3-28,60.4,38.8,19.2,30.0,16.7,9.6,86,48,16,38.53,38.15,6,1,11,0.00
2014-3-29,64.4,43.5,20.3,25.9,16.8,11.7,74,40,13,38.78,37.76,7,1,14,0.00
2014-3-30,59.1,41.5,26.9,26.9,16.9,4.7,69,41,17,38.06,37.92,11,2,26,0.00
2014-3-31,57.9,40.2,19.2,21.5,10.3,2.2,67,35,16,38.09,37.30,10,2,21,0.00
2014-4-1,54.1,44.6,37.9,27.4,11.8,2.2,63,29,15,37.43,36.52,14,5,27,0.00
2014-4-2,45.3,33.8,23.5,31.3,25.5,17.8,94,74,36,36.93,28.79,9,2,17,0.06
2014-4-3,50.7,33.3,18.5,31.4,21.7,13.9,91,66,36,30.61,29.38,7,1,11,0.27
2014-4-4,56.1,37.8,19.2,29.3,12.6,1.9,84,44,15,30.62,29.37,8,1,13,0.00
2014-4-5,49.8,34.8,21.7,31.1,18.6,9.4,86,55,24,30.39,29.52,8,1,16,0.00
2014-4-6,60.2,40.2,18.5,30.4,17.3,10.7,88,48,16,30.61,29.36,7,1,11,0.00
2014-4-7,66.2,48.1,28.7,22.2,16.6,12.1,58,32,12,31.13,29.73,9,2,16,0.00
2014-4-8,73.4,47.9,24.4,30.0,15.6,11.0,69,35,10,31.34,29.72,7,1,12,0.00
2014-4-9,74.3,48.4,26.6,35.2,15.0,6.2,70,34,10,31.14,29.63,8,1,15,0.00
2014-4-10,74.3,49.7,25.3,28.7,12.7,4.9,59,28,10,30.98,29.20,8,1,17,0.00
2014-4-11,71.4,50.5,27.8,27.2,15.7,10.7,57,30,10,30.75,29.38,8,2,18,0.00
2014-4-12,66.0,48.6,27.8,26.6,17.6,12.1,72,35,13,30.22,28.73,8,2,17,0.00
2014-4-13,64.0,45.3,26.2,25.5,14.4,-3.0,62,32,15,30.36,28.72,14,2,27,0.00
2014-4-14,55.4,41.1,26.6,12.6,6.9,0.8,40,25,15,30.90,29.74,8,3,21,0.00
2014-4-15,66.2,42.4,16.7,18.9,9.1,1.2,56,29,12,30.90,29.31,6,1,14,0.00
2014-4-16,70.1,47.4,22.8,22.3,11.7,5.9,53,28,10,30.24,28.79,8,1,13,0.00
2014-4-17,72.5,50.4,27.1,31.8,17.3,11.8,64,33,10,30.52,29.05,6,1,12,0.00
2014-4-18,63.5,45.4,33.0,41.9,30.6,19.9,98,60,23,30.36,29.76,9,1,17,0.02
2014-4-19,65.3,46.9,29.8,46.4,33.9,27.9,99,66,28,30.49,29.25,6,1,14,0.00
2014-4-20,65.1,47.3,28.0,48.4,35.0,23.7,95,66,33,30.79,29.55,7,1,13,0.05
2014-4-21,74.6,54.6,31.1,44.9,30.8,19.4,98,50,13,30.96,29.63,6,1,9,0.00
2014-4-22,70.1,53.2,30.5,41.6,27.1,20.8,83,42,19,30.55,29.11,11,3,24,0.00
2014-4-23,64.5,49.7,29.4,28.6,15.5,7.2,52,28,13,30.53,29.16,7,2,15,0.00
2014-4-24,69.4,46.5,23.0,21.5,11.6,7.0,56,29,11,30.94,29.32,8,1,14,0.00
2014-4-25,66.3,48.5,27.3,29.1,16.6,8.4,53,31,14,30.56,29.16,13,3,27,0.00
2014-4-26,50.0,35.8,29.3,37.6,31.8,28.4,99,87,44,29.74,28.88,8,2,21,0.90
2014-4-27,55.5,40.6,25.1,34.9,26.0,14.6,99,62,22,30.07,29.23,6,2,15,0.14
2014-4-28,60.8,44.2,25.5,31.2,18.3,5.1,85,42,16,30.61,29.45,8,2,15,0.00
2014-4-29,52.1,42.1,32.1,9.5,5.5,-3.0,33,22,16,30.94,30.10,11,3,27,0.00
2014-4-30,55.9,44.0,33.6,14.2,7.6,-2.0,35,22,16,30.96,29.83,11,4,25,0.00
2014-5-1,62.7,46.4,32.5,17.0,11.7,5.2,47,26,14,31.01,29.85,8,2,16,0.00
2014-5-2,75.0,50.9,26.6,27.2,16.9,10.7,63,33,10,31.14,29.51,8,1,11,0.00
2014-5-3,77.9,52.6,28.9,35.5,20.8,12.2,75,41,10,31.00,29.23,7,2,12,0.00
2014-5-7,52.8,43.0,29.8,35.1,27.6,18.9,95,59,28,30.28,29.03,8,2,18,0.11
2014-5-8,59.1,43.9,30.9,40.4,30.4,22.3,99,66,25,30.58,29.70,6,1,15,0.01
2014-5-9,67.4,49.0,27.5,37.0,26.5,20.6,89,48,19,30.74,29.46,8,2,16,0.00
2014-5-10,68.9,52.6,30.9,37.2,28.6,21.8,82,44,23,30.33,28.64,11,3,20,0.00
2014-5-11,52.7,45.4,34.1,33.9,22.4,3.9,60,41,18,30.37,28.90,8,2,18,0.00
2014-5-12,62.4,44.3,24.4,27.4,18.1,10.2,75,40,15,30.80,29.70,8,2,14,0.00
2014-5-13,57.3,45.2,33.8,25.5,14.4,2.2,70,34,15,31.25,30.36,9,3,21,0.00
2014-5-14,64.7,49.3,34.1,18.4,10.3,0.4,44,22,13,31.37,30.38,11,2,16,0.00
2014-5-15,77.5,53.4,27.3,28.7,18.8,11.6,57,32,11,31.54,29.78,6,1,13,0.00
2014-5-16,81.8,59.6,31.8,39.8,19.9,10.7,72,30,10,31.23,29.25,8,1,13,0.00
2014-5-17,80.7,60.2,33.2,35.0,18.1,10.7,63,25,10,30.65,28.89,8,2,15,0.00
2014-5-18,77.3,59.1,37.5,36.2,16.8,10.7,59,24,10,30.25,28.86,8,2,20,0.00
2014-5-19,73.9,60.9,44.4,21.5,13.5,8.5,35,16,10,29.89,28.99,11,3,22,0.00
2014-5-20,69.9,57.0,32.0,21.8,12.1,3.9,45,18,10,30.31,29.14,13,4,23,0.00
2014-5-21,68.5,54.9,35.0,16.6,12.1,7.1,39,19,11,30.38,29.38,9,3,25,0.00
2014-5-22,70.7,49.9,27.6,27.4,13.2,8.9,53,27,10,30.73,29.38,10,2,17,0.00
2014-5-23,67.8,50.6,36.3,31.9,19.2,11.4,62,33,12,30.58,29.57,9,2,16,0.00
2014-5-24,60.8,47.3,28.7,38.0,28.9,21.0,80,52,22,30.74,29.65,5,1,10,0.00
2014-5-25,68.9,52.5,33.6,42.5,36.0,28.8,87,58,27,30.71,29.52,5,1,11,0.00
2014-5-26,81.6,60.1,33.8,45.9,31.3,19.0,88,44,10,30.89,29.23,4,1,9,0.00
2014-5-27,86.0,63.9,38.4,47.3,29.8,18.7,81,37,10,30.88,29.27,4,1,12,0.00
2014-5-28,83.8,63.8,40.2,45.4,28.4,11.2,75,34,10,30.55,29.05,9,2,17,0.00
2014-5-29,70.1,54.5,43.1,52.8,39.2,27.0,88,58,34,30.68,29.82,5,1,9,0.09
2014-5-30,82.0,60.8,37.4,52.3,36.0,23.2,97,50,12,30.82,29.15,7,1,12,0.00
2014-5-31,83.8,62.7,35.4,46.6,29.8,23.1,81,37,12,30.60,28.78,10,2,19,0.00
2014-6-1,83.6,62.3,37.0,31.8,19.6,10.4,62,24,10,30.33,28.81,7,2,19,0.00
2014-6-2,86.7,64.2,33.0,37.9,19.8,12.2,62,24,10,30.71,28.86,8,2,19,0.00
2014-6-3,85.1,69.0,44.4,29.6,17.6,4.9,33,15,10,29.80,28.65,9,2,18,0.00
2014-6-4,84.3,59.6,29.8,25.9,13.5,1.4,46,19,10,30.60,28.84,8,2,16,0.00
2014-6-5,85.8,60.2,29.3,25.9,15.1,3.4,45,20,10,30.63,28.78,8,1,16,0.00
2014-6-6,86.3,62.6,32.7,31.1,17.3,8.2,52,21,10,30.35,28.60,11,1,16,0.00
2014-6-7,84.7,62.4,35.2,35.4,18.3,10.7,54,22,10,30.36,28.58,9,1,15,0.00
2014-6-8,86.7,63.4,35.0,30.5,19.3,12.4,55,23,10,30.48,28.70,7,1,11,0.00
2014-6-9,83.6,66.1,46.5,28.7,19.7,10.7,40,19,10,30.37,28.87,8,1,13,0.00
2014-6-10,87.8,65.6,37.7,40.3,27.6,18.5,61,29,10,30.38,28.63,9,2,21,0.00
2014-6-11,79.8,62.3,41.7,39.8,23.9,12.2,71,30,10,30.11,28.87,8,2,20,0.00
2014-6-12,84.2,63.5,35.7,38.5,25.1,13.2,64,29,10,30.60,28.97,10,2,17,0.00
2014-6-13,83.1,66.6,47.1,41.0,27.8,12.1,62,28,10,30.18,28.72,12,2,23,0.00
2014-6-14,80.6,64.7,41.5,28.4,16.3,10.1,51,18,10,29.77,28.69,9,2,20,0.00
2014-6-15,78.9,58.6,32.5,28.0,14.0,7.1,52,20,10,30.41,28.82,11,2,20,0.00
2014-6-16,79.1,60.5,46.4,21.2,13.4,7.9,25,16,10,29.96,28.86,10,3,23,0.00
2014-9-7,81.3,70.3,54.5,63.1,56.3,46.6,99,65,40,33.15,10.25,5,2,10,0.19
2014-9-8,68.3,59.9,52.8,62.9,57.7,52.3,99,93,72,21.07,0.00,4,1,8,0.92
2014-9-9,69.0,60.5,54.8,61.4,58.1,54.0,99,92,63,15.20,10.30,6,1,11,0.54
2014-9-10,76.6,59.2,49.6,59.2,46.4,31.3,99,71,22,32.89,10.22,3,0,8,0.01
2014-9-11,80.4,60.8,49.8,51.9,42.5,30.6,88,60,17,33.29,10.36,4,1,7,0.00
2014-9-12,84.3,62.7,50.5,52.3,43.3,32.9,84,58,18,32.59,10.38,5,0,8,0.00
2014-9-13,80.9,60.1,50.7,59.2,49.6,40.7,93,73,24,32.59,14.38,5,0,10,0.08
2014-9-14,83.8,62.4,52.7,58.2,50.9,38.8,96,73,22,32.89,10.41,4,1,10,0.00
2014-9-15,80.7,62.9,53.2,60.0,50.9,41.9,97,71,27,32.88,10.24,5,0,10,0.01
2014-9-16,74.1,60.6,53.9,60.6,55.3,50.1,99,84,56,28.00,10.27,4,0,8,0.02
2014-9-17,69.0,60.0,57.0,61.1,57.4,56.4,99,92,67,10.24,10.24,6,0,10,0.06
2014-9-18,79.5,64.3,59.0,59.3,56.4,51.1,92,78,39,33.11,10.25,4,1,8,0.00
2014-9-19,72.5,62.3,59.0,66.6,58.4,56.6,99,87,59,33.06,10.24,3,0,6,0.35
2014-9-20,81.1,66.2,60.9,64.7,56.3,47.1,92,74,31,33.09,10.32,7,0,11,0.01
2014-9-21,77.1,64.9,60.9,61.5,54.2,47.8,84,70,41,30.74,10.32,5,1,11,0.00
2014-9-22,77.9,65.8,61.3,52.6,51.2,46.1,71,61,33,33.03,10.32,5,1,12,0.00
2014-9-23,79.7,67.0,62.2,51.9,47.5,38.8,69,53,26,32.78,10.23,5,1,9,0.00
2014-9-24,82.7,68.2,61.8,52.1,46.7,40.6,67,49,25,32.80,10.25,4,1,8,0.00
2014-9-25,81.1,67.8,61.8,54.7,50.1,45.8,67,56,30,32.91,16.80,8,1,13,0.00
2014-9-26,78.6,66.7,62.0,56.5,52.5,50.1,72,61,41,32.62,10.34,4,1,11,0.47
2014-9-27,63.3,63.3,63.3,53.7,53.7,53.7,71,71,71,10.35,10.35,8,1,17,0.78
2014-9-28,63.3,63.3,63.3,53.7,53.7,53.7,71,71,71,32.61,10.35,8,1,21,0.05
2014-9-29,63.3,63.3,63.3,53.7,53.7,53.7,71,71,71,32.99,20.84,4,1,10,0.00
2014-9-30,63.3,63.3,63.3,53.7,53.7,53.7,71,71,71,32.92,10.20,5,1,11,0.00
2014-10-1,68.5,58.6,37.7,53.7,46.1,33.6,87,65,28,33.40,10.22,4,0,8,0.00
2014-10-2,68.1,47.7,32.9,34.2,23.8,13.5,87,46,12,33.47,10.21,6,1,12,0.00
2014-10-3,73.5,48.8,28.0,35.0,24.2,12.4,84,50,10,33.53,21.40,8,1,11,0.00
2014-10-4,78.6,51.4,30.2,42.7,30.9,24.7,88,56,14,33.46,10.15,5,1,10,0.00
2014-10-5,77.9,51.0,29.3,43.6,29.6,13.3,91,55,10,33.54,10.35,4,1,11,0.00
2014-10-6,78.9,52.1,30.7,43.2,32.2,20.9,91,57,12,33.40,10.30,5,1,9,0.00
2014-10-7,70.5,53.2,39.0,48.8,40.1,34.6,90,66,27,33.42,10.46,4,0,8,0.00
2014-10-8,63.1,52.9,46.7,49.5,44.9,38.5,90,76,41,33.27,22.88,4,1,10,0.00
2014-10-9,66.0,51.4,44.2,51.0,46.8,43.4,99,86,46,33.29,20.39,3,1,8,0.45
2014-10-10,74.3,54.2,38.3,56.9,44.0,32.8,99,75,23,33.43,20.23,5,0,11,0.01
2014-10-11,72.8,51.8,36.3,55.3,38.3,27.3,99,69,20,33.45,10.37,5,1,11,0.00
2014-10-12,71.9,50.3,35.4,45.7,29.4,10.9,99,55,10,33.42,10.36,6,1,12,0.00
2014-10-13,65.3,47.6,31.8,31.0,21.2,12.9,69,39,15,33.42,26.14,8,1,12,0.00
2014-10-14,76.1,48.7,28.2,34.8,26.1,18.7,79,50,14,33.64,17.03,4,1,8,0.00
2014-10-15,70.7,50.1,31.6,44.2,34.4,27.4,92,61,24,33.57,10.19,8,1,13,0.00
2014-10-16,71.0,49.9,31.8,47.7,33.3,19.0,99,62,14,33.56,10.28,6,1,11,0.00
2014-10-17,66.2,47.3,35.0,45.3,37.9,30.5,94,73,29,33.46,10.28,4,0,7,0.00
2014-10-18,68.5,51.7,40.4,47.7,41.2,37.3,92,71,32,33.42,20.54,3,0,6,0.46
2014-10-19,68.1,49.6,36.5,45.5,40.6,34.0,97,74,34,33.28,11.21,5,1,12,0.01
2014-10-20,65.4,46.7,31.8,50.0,38.8,30.7,99,78,41,29.63,6.64,4,0,9,0.00
2014-10-21,69.0,47.4,31.8,51.3,36.9,30.4,99,72,30,29.70,6.51,4,1,9,0.00
2014-10-22,70.3,47.6,30.5,51.0,35.9,29.3,99,70,31,29.63,20.85,5,1,9,0.00
2014-10-23,74.3,48.4,30.7,48.4,34.5,28.4,99,66,22,29.64,6.35,3,0,8,0.00
2014-10-24,76.1,49.2,30.2,49.3,31.2,19.0,99,61,14,29.65,6.43,4,1,8,0.00
2014-10-25,70.8,49.9,30.7,51.0,38.7,27.8,98,69,37,29.63,15.64,5,1,12,0.00
2014-10-26,65.8,50.3,36.3,50.3,41.1,34.8,99,74,39,6.57,6.57,6,1,13,0.00
2014-10-27,66.2,46.6,31.8,49.6,35.8,28.0,99,71,34,29.61,6.47,6,1,10,0.00
2014-10-28,69.0,45.0,28.2,46.2,32.6,25.1,99,68,30,29.72,20.70,4,0,8,0.00
2014-10-29,71.9,46.3,28.9,42.7,27.7,18.1,96,58,13,29.67,20.89,4,1,9,0.00
2014-10-30,72.5,45.8,26.4,35.8,24.2,16.3,85,52,12,29.06,20.18,5,1,10,0.00
2014-10-31,70.3,50.3,30.2,44.7,34.4,23.5,85,59,26,29.52,6.35,9,2,17,0.00
2014-11-1,59.5,51.1,44.6,46.2,43.3,39.5,97,76,52,29.37,19.87,11,3,22,0.35
2014-11-2,45.3,38.1,28.9,44.5,36.9,28.1,99,96,90,29.56,6.85,5,1,19,0.58
2014-11-3,50.3,33.6,22.1,35.7,24.7,20.0,99,73,34,29.59,20.35,4,1,7,0.02
2014-11-4,50.3,37.7,29.1,26.0,20.3,14.3,71,52,24,29.60,20.09,8,2,12,0.00
2014-11-5,60.0,43.8,30.2,25.3,19.3,9.8,65,40,16,29.36,7.06,6,2,13,0.00
2014-11-6,67.4,43.0,27.3,29.0,20.1,13.9,73,47,13,29.35,7.06,6,1,10,0.00
2014-11-7,71.4,42.5,21.9,31.9,19.4,10.7,83,50,10,29.64,6.51,5,1,11,0.00
2014-11-8,66.2,45.7,29.3,31.0,25.6,18.9,78,51,17,29.50,17.34,5,1,16,0.00
2014-11-9,69.2,43.1,25.1,41.2,26.4,20.1,89,59,18,29.54,6.63,5,1,10,0.00
2014-11-10,60.6,44.2,30.5,37.3,29.8,24.8,89,61,31,29.62,20.01,9,2,19,0.00
2014-11-11,59.0,41.3,25.7,36.2,27.6,21.1,92,62,32,29.31,20.11,7,1,15,1.41
2014-11-12,57.9,40.8,28.0,43.0,32.0,24.1,99,73,43,29.48,7.00,8,1,15,0.00
2014-11-13,56.1,42.5,28.0,43.7,36.4,24.9,99,81,57,29.43,6.96,8,2,13,0.00
2014-11-14,48.3,43.9,41.3,43.6,41.4,39.1,98,91,79,29.43,8.78,7,1,13,0.00
2014-11-15,50.9,42.8,37.5,41.6,37.0,26.9,99,81,51,29.54,20.14,8,2,14,0.00
2014-11-16,41.5,31.9,24.8,38.6,5.1,-12.0,92,38,17,29.48,20.05,11,3,16,0.00
2014-11-17,44.6,29.2,16.8,4.3,-4.0,-12.0,46,24,18,29.71,19.29,8,2,16,0.00
2014-11-18,53.2,29.0,14.5,11.3,5.7,0.0,61,41,17,29.87,7.09,7,1,11,0.00
2014-11-19,56.4,31.6,13.2,19.8,6.5,-3.0,66,40,16,29.71,7.11,5,1,10,0.00
2014-11-20,56.8,34.5,18.5,24.9,13.5,4.1,62,45,18,29.33,7.02,6,1,11,0.00
2014-11-21,51.9,33.7,22.4,26.0,16.8,12.3,68,52,21,27.27,7.06,4,0,6,0.00
2014-11-22,54.8,34.7,15.8,27.7,15.1,8.2,79,50,18,29.57,19.35,8,1,13,0.00
2014-11-23,45.8,33.6,14.9,23.9,6.5,-14.0,66,36,17,29.72,15.70,12,2,16,0.00
2014-11-24,46.7,29.8,11.2,7.8,-1.1,-8.0,49,28,17,29.24,6.96,8,2,15,0.00
2014-11-25,55.4,33.8,13.6,12.6,3.2,-10.0,49,29,16,29.75,20.02,5,1,10,0.00
2014-11-26,64.0,37.1,19.9,29.6,13.2,8.1,71,43,15,29.26,7.13,5,1,11,0.00
2014-11-27,68.7,39.6,21.7,26.4,14.9,10.4,70,43,11,29.49,10.56,5,1,9,0.00
2014-11-28,66.7,37.9,18.5,26.6,12.3,7.8,70,42,12,29.13,6.46,8,1,11,0.00
2014-11-29,58.1,37.9,18.5,26.4,13.9,9.0,73,42,18,28.95,6.69,8,1,13,0.00
2014-11-30,53.6,39.4,25.3,25.4,18.5,11.1,63,44,23,29.43,6.78,8,2,21,0.00
2014-12-1,54.1,34.5,19.2,30.7,20.2,11.3,78,58,30,29.68,6.90,4,0,5,0.00
2014-12-2,55.2,37.5,24.2,34.4,20.6,9.8,93,57,17,29.22,6.95,6,1,9,0.07
2014-12-3,47.6,43.3,36.3,47.3,42.7,34.4,99,98,93,27.34,6.86,6,1,9,0.90
2014-12-4,46.4,41.5,37.2,45.2,40.9,36.4,99,98,90,27.43,21.29,4,0,10,0.61
2014-12-5,48.7,38.7,30.5,43.5,36.6,30.3,99,93,69,27.77,20.27,5,1,8,0.01
2014-12-6,51.0,37.2,30.3,44.0,35.2,29.9,99,93,64,29.68,20.05,4,0,7,0.00
2014-12-7,52.8,36.4,26.7,44.9,32.8,25.2,99,88,53,28.03,20.01,4,1,8,0.00
2014-12-8,51.0,36.7,27.8,45.2,34.2,26.1,99,91,66,29.64,20.04,5,1,9,0.01
2014-12-9,44.2,33.7,27.5,40.5,32.5,25.4,99,95,82,27.81,8.44,4,1,9,0.00
2014-12-10,55.0,36.0,24.9,44.1,33.2,22.9,99,90,63,29.62,20.24,4,1,9,0.00
2014-12-11,56.3,37.4,25.8,44.3,31.4,23.6,99,81,38,29.65,13.86,6,1,10,0.00
2014-12-12,51.2,42.4,31.1,40.3,34.5,27.2,95,75,41,29.27,7.00,11,3,21,0.06
2014-12-13,41.3,34.2,29.6,40.2,31.6,26.4,98,90,74,26.93,15.14,8,1,22,0.65
2014-12-14,42.0,29.7,21.2,28.1,22.8,17.6,91,77,43,29.67,20.05,5,1,10,0.08
2014-12-15,44.7,30.0,19.7,28.3,21.6,15.7,88,73,35,27.44,20.12,5,1,9,0.00
2014-12-16,47.6,33.0,26.4,32.7,23.2,19.0,88,69,42,27.32,6.98,5,1,12,0.00
2014-12-17,32.9,30.7,26.6,29.7,27.5,20.0,91,88,76,27.06,20.02,4,0,8,0.01
2014-12-18,34.7,29.8,23.5,30.6,26.7,19.9,92,88,83,27.28,20.02,2,0,4,0.02
2014-12-19,41.3,25.6,12.5,31.8,19.6,7.5,90,78,60,28.19,18.02,4,0,8,0.51
2014-12-20,45.5,30.1,16.7,36.3,21.6,11.3,91,72,41,29.35,20.04,5,1,11,0.02
2014-12-21,54.1,36.6,22.4,34.2,27.1,17.9,85,70,44,29.42,18.47,4,1,12,0.00
2014-12-22,54.8,41.0,28.5,36.1,29.8,24.6,89,67,39,29.57,18.80,6,2,11,0.00
2014-12-23,39.3,32.2,26.2,29.0,5.8,-7.0,68,34,18,29.76,20.02,10,3,23,0.00
2014-12-24,53.7,32.7,17.2,12.2,5.4,-8.0,54,33,17,29.65,7.03,7,1,10,0.00
2014-12-25,33.8,27.8,13.2,25.3,10.3,0.2,79,49,29,29.80,20.03,8,2,16,0.02
2014-12-26,29.8,19.2,9.5,11.9,5.9,-2.0,70,57,37,29.78,12.39,4,1,9,0.00
2014-12-27,31.2,17.2,5.1,10.1,2.4,-5.0,70,53,30,29.85,17.04,7,1,12,0.00
2014-12-28,39.0,19.9,5.7,14.0,1.9,-4.0,73,47,20,29.67,17.91,5,1,11,0.00
2014-12-29,46.4,28.1,15.9,9.9,4.5,1.6,58,39,17,29.80,16.90,6,2,15,0.00
2014-12-30,41.1,28.9,21.5,8.5,4.0,-3.0,50,35,20,29.77,19.81,9,2,22,0.00
2014-12-31,24.6,18.5,16.7,12.7,10.3,8.2,73,70,49,29.84,20.02,3,1,9,0.00
2015-1-1,31.1,19.3,14.0,16.8,10.3,5.0,76,68,45,29.99,13.68,0,0,0,0.07
2015-1-2,29.4,16.2,-1.0,14.7,5.2,-14.0,72,61,46,30.04,20.61,3,0,9,0.00